Aeroporto :
LOGIN :

Iscrizione | Disclaimer

   EN    FR    IT 

 










Sommario :    VFR   VFR Marginale   IFR   IFR Intensivo   IFR Molto Intensivo
Visibilità : 
Base nubi : 
>= 8 km
>= 3000ft
5 / 8 km
1000 / 3000 ft
1500m / 5 km
500 / 1000 ft
800 / 1500m
200 / 500 ft
< 800m
< 200 ft
Simboli :   Temporali  Nebbia  Neve Forte  Precipitazioni Forti  Vento > 20 kt
SIGMETs :   Varie  Temporali  Ghiacco  Turbolenza  Onda orograficha  Ceneri Vulcaniche






- Altitudine del aeroporto : 7 ft
- Codice IATA : ESH


EGKA - Shoreham

ULTIMO METAR :
  • 151820Z 20020KT 9999 FEW028 09/06 Q1000

METARs OBSOLETI :
  • 151750Z 21018G28KT 9999 VCSH SCT020 09/07 Q1000 RESHRA
  • 151720Z 21018KT 9999 -SHRA SCT030 10/06 Q1000
  • 151650Z 21012G22KT 9999 FEW028 09/06 Q1000
  • 151620Z 21013KT 9999 FEW025 09/06 Q1000
  • 151550Z 22014KT 9999 FEW025 09/06 Q1000

TAF TAF EGKA
Valido dal 15 a 15 ore il 15 a 19 ore UTC


151357Z 1515/1519 24018G28KT 9999 FEW030
PROB30
TEMPO 1515/1519 7000 SHRA BKN012
ATIS : +44 1273 467 372



MetMap, La meteo Aeronautica in un colpo d'occhio ! - Copyright ORBIFLY Dicembre 2007 - Disclaimer

ORBIFLY MET'MAP TEAM :

Programmazione e sviluppo : Alexandra Zaïnal
Concezione : Baudouin d'Aumeries
Aiuto per la programmazione : Marc-Olivier Méhu
Supporto tecnico e logistico : Manuel Goepfert
Aiuto per la traduzione : Arnaldo La Scala

Contatto : metmap@orbifly.com




FONTI E CREDITI :

   NOAA